sensor_id;sensor_type;location;lat;lon;timestamp;P1;durP1;ratioP1;P2;durP2;ratioP2
8663;SDS011;4369;47.842;13.096;2024-02-15T00:00:01;5.07;;;4.10;;
8663;SDS011;4369;47.842;13.096;2024-02-15T00:02:28;4.90;;;3.67;;
8663;SDS011;4369;47.842;13.096;2024-02-15T00:04:55;4.20;;;3.80;;
8663;SDS011;4369;47.842;13.096;2024-02-15T00:07:24;8.83;;;4.97;;
8663;SDS011;4369;47.842;13.096;2024-02-15T00:09:51;5.40;;;4.77;;
8663;SDS011;4369;47.842;13.096;2024-02-15T00:12:18;4.40;;;4.00;;
8663;SDS011;4369;47.842;13.096;2024-02-15T00:14:46;3.67;;;3.10;;
8663;SDS011;4369;47.842;13.096;2024-02-15T00:17:13;4.63;;;3.50;;
8663;SDS011;4369;47.842;13.096;2024-02-15T00:19:40;4.03;;;3.70;;
8663;SDS011;4369;47.842;13.096;2024-02-15T00:22:07;4.07;;;3.67;;
8663;SDS011;4369;47.842;13.096;2024-02-15T00:24:37;3.90;;;3.20;;
8663;SDS011;4369;47.842;13.096;2024-02-15T00:27:07;4.03;;;3.10;;
8663;SDS011;4369;47.842;13.096;2024-02-15T00:29:33;4.00;;;3.57;;
8663;SDS011;4369;47.842;13.096;2024-02-15T00:32:00;3.80;;;3.40;;
8663;SDS011;4369;47.842;13.096;2024-02-15T00:34:28;4.03;;;3.63;;
8663;SDS011;4369;47.842;13.096;2024-02-15T00:36:55;4.67;;;3.60;;
8663;SDS011;4369;47.842;13.096;2024-02-15T00:39:22;3.90;;;3.50;;
8663;SDS011;4369;47.842;13.096;2024-02-15T00:41:51;4.13;;;3.47;;
8663;SDS011;4369;47.842;13.096;2024-02-15T00:44:18;4.77;;;3.60;;
8663;SDS011;4369;47.842;13.096;2024-02-15T00:46:45;3.93;;;3.47;;
8663;SDS011;4369;47.842;13.096;2024-02-15T00:49:12;4.10;;;3.73;;
8663;SDS011;4369;47.842;13.096;2024-02-15T00:51:39;3.70;;;3.40;;
8663;SDS011;4369;47.842;13.096;2024-02-15T00:54:06;5.67;;;3.90;;
8663;SDS011;4369;47.842;13.096;2024-02-15T00:56:33;4.43;;;3.80;;
8663;SDS011;4369;47.842;13.096;2024-02-15T00:59:02;5.83;;;3.80;;
8663;SDS011;4369;47.842;13.096;2024-02-15T01:01:30;4.57;;;4.17;;
8663;SDS011;4369;47.842;13.096;2024-02-15T01:03:57;5.80;;;4.00;;
8663;SDS011;4369;47.842;13.096;2024-02-15T01:06:24;5.17;;;3.97;;
8663;SDS011;4369;47.842;13.096;2024-02-15T01:08:55;4.63;;;4.10;;
8663;SDS011;4369;47.842;13.096;2024-02-15T01:11:22;4.47;;;4.07;;
8663;SDS011;4369;47.842;13.096;2024-02-15T01:13:50;4.30;;;3.80;;
8663;SDS011;4369;47.842;13.096;2024-02-15T01:16:19;4.60;;;3.97;;
8663;SDS011;4369;47.842;13.096;2024-02-15T01:18:46;3.70;;;3.40;;
8663;SDS011;4369;47.842;13.096;2024-02-15T01:21:13;4.07;;;3.57;;
8663;SDS011;4369;47.842;13.096;2024-02-15T01:23:40;3.53;;;3.23;;
8663;SDS011;4369;47.842;13.096;2024-02-15T01:26:09;3.70;;;3.40;;
8663;SDS011;4369;47.842;13.096;2024-02-15T01:28:37;4.83;;;3.87;;
8663;SDS011;4369;47.842;13.096;2024-02-15T01:31:05;4.10;;;3.50;;
8663;SDS011;4369;47.842;13.096;2024-02-15T01:33:34;3.87;;;3.30;;
8663;SDS011;4369;47.842;13.096;2024-02-15T01:36:01;4.07;;;3.67;;
8663;SDS011;4369;47.842;13.096;2024-02-15T01:38:29;4.17;;;3.77;;
8663;SDS011;4369;47.842;13.096;2024-02-15T01:40:56;3.93;;;3.57;;
8663;SDS011;4369;47.842;13.096;2024-02-15T01:43:23;3.83;;;3.43;;
8663;SDS011;4369;47.842;13.096;2024-02-15T01:45:49;4.10;;;3.50;;
8663;SDS011;4369;47.842;13.096;2024-02-15T01:48:16;4.27;;;3.40;;
8663;SDS011;4369;47.842;13.096;2024-02-15T01:50:45;4.83;;;3.60;;
8663;SDS011;4369;47.842;13.096;2024-02-15T01:53:13;4.13;;;3.70;;
8663;SDS011;4369;47.842;13.096;2024-02-15T01:55:50;4.40;;;3.80;;
8663;SDS011;4369;47.842;13.096;2024-02-15T01:58:19;4.10;;;3.60;;
8663;SDS011;4369;47.842;13.096;2024-02-15T02:00:47;4.30;;;3.40;;
8663;SDS011;4369;47.842;13.096;2024-02-15T02:03:15;4.23;;;3.80;;
8663;SDS011;4369;47.842;13.096;2024-02-15T02:05:44;5.37;;;3.40;;
8663;SDS011;4369;47.842;13.096;2024-02-15T02:08:11;3.73;;;2.93;;
8663;SDS011;4369;47.842;13.096;2024-02-15T02:10:39;3.20;;;2.90;;
8663;SDS011;4369;47.842;13.096;2024-02-15T02:13:06;3.30;;;3.00;;
8663;SDS011;4369;47.842;13.096;2024-02-15T02:15:34;3.97;;;3.57;;
8663;SDS011;4369;47.842;13.096;2024-02-15T02:18:02;3.20;;;3.00;;
8663;SDS011;4369;47.842;13.096;2024-02-15T02:20:31;3.33;;;3.03;;
8663;SDS011;4369;47.842;13.096;2024-02-15T02:23:02;4.23;;;3.23;;
8663;SDS011;4369;47.842;13.096;2024-02-15T02:25:34;3.67;;;3.30;;
8663;SDS011;4369;47.842;13.096;2024-02-15T02:28:01;3.83;;;3.53;;
8663;SDS011;4369;47.842;13.096;2024-02-15T02:30:29;3.60;;;3.17;;
8663;SDS011;4369;47.842;13.096;2024-02-15T02:32:56;5.03;;;3.20;;
8663;SDS011;4369;47.842;13.096;2024-02-15T02:35:24;3.30;;;3.00;;
8663;SDS011;4369;47.842;13.096;2024-02-15T02:37:52;3.57;;;2.70;;
8663;SDS011;4369;47.842;13.096;2024-02-15T02:40:20;3.47;;;3.13;;
8663;SDS011;4369;47.842;13.096;2024-02-15T02:42:52;3.27;;;2.97;;
8663;SDS011;4369;47.842;13.096;2024-02-15T02:45:21;3.97;;;3.57;;
8663;SDS011;4369;47.842;13.096;2024-02-15T02:47:49;4.50;;;4.10;;
8663;SDS011;4369;47.842;13.096;2024-02-15T02:50:16;4.47;;;4.07;;
8663;SDS011;4369;47.842;13.096;2024-02-15T02:52:43;4.27;;;3.53;;
8663;SDS011;4369;47.842;13.096;2024-02-15T02:55:13;3.90;;;3.50;;
8663;SDS011;4369;47.842;13.096;2024-02-15T02:57:40;4.40;;;3.73;;
8663;SDS011;4369;47.842;13.096;2024-02-15T03:00:09;3.37;;;3.07;;
8663;SDS011;4369;47.842;13.096;2024-02-15T03:02:40;3.57;;;3.27;;
8663;SDS011;4369;47.842;13.096;2024-02-15T03:05:07;3.43;;;3.13;;
8663;SDS011;4369;47.842;13.096;2024-02-15T03:07:36;3.63;;;3.33;;
8663;SDS011;4369;47.842;13.096;2024-02-15T03:10:03;3.83;;;3.47;;
8663;SDS011;4369;47.842;13.096;2024-02-15T03:12:33;3.80;;;3.23;;
8663;SDS011;4369;47.842;13.096;2024-02-15T03:15:01;3.13;;;2.77;;
8663;SDS011;4369;47.842;13.096;2024-02-15T03:17:29;3.03;;;2.80;;
8663;SDS011;4369;47.842;13.096;2024-02-15T03:19:57;3.33;;;3.00;;
8663;SDS011;4369;47.842;13.096;2024-02-15T03:22:25;4.60;;;2.83;;
8663;SDS011;4369;47.842;13.096;2024-02-15T03:24:54;2.83;;;2.63;;
8663;SDS011;4369;47.842;13.096;2024-02-15T03:27:21;2.73;;;2.53;;
8663;SDS011;4369;47.842;13.096;2024-02-15T03:29:48;3.17;;;2.80;;
8663;SDS011;4369;47.842;13.096;2024-02-15T03:32:16;3.67;;;2.57;;
8663;SDS011;4369;47.842;13.096;2024-02-15T03:34:44;3.00;;;2.80;;
8663;SDS011;4369;47.842;13.096;2024-02-15T03:37:11;3.03;;;2.73;;
8663;SDS011;4369;47.842;13.096;2024-02-15T03:39:38;3.10;;;2.60;;
8663;SDS011;4369;47.842;13.096;2024-02-15T03:42:05;2.80;;;2.60;;
8663;SDS011;4369;47.842;13.096;2024-02-15T03:44:32;2.80;;;2.60;;
8663;SDS011;4369;47.842;13.096;2024-02-15T03:46:59;2.67;;;2.47;;
8663;SDS011;4369;47.842;13.096;2024-02-15T03:49:27;3.00;;;2.70;;
8663;SDS011;4369;47.842;13.096;2024-02-15T03:51:57;3.00;;;2.60;;
8663;SDS011;4369;47.842;13.096;2024-02-15T03:54:24;2.70;;;2.50;;
8663;SDS011;4369;47.842;13.096;2024-02-15T03:56:51;3.03;;;2.83;;
8663;SDS011;4369;47.842;13.096;2024-02-15T03:59:19;2.73;;;2.53;;
8663;SDS011;4369;47.842;13.096;2024-02-15T04:01:50;3.13;;;2.40;;
8663;SDS011;4369;47.842;13.096;2024-02-15T04:04:17;2.90;;;2.60;;
8663;SDS011;4369;47.842;13.096;2024-02-15T04:06:46;2.80;;;2.60;;
8663;SDS011;4369;47.842;13.096;2024-02-15T04:09:14;2.83;;;2.63;;
8663;SDS011;4369;47.842;13.096;2024-02-15T04:11:42;2.83;;;2.50;;
8663;SDS011;4369;47.842;13.096;2024-02-15T04:14:11;2.77;;;2.50;;
8663;SDS011;4369;47.842;13.096;2024-02-15T04:16:38;2.63;;;2.43;;
8663;SDS011;4369;47.842;13.096;2024-02-15T04:19:05;2.80;;;2.53;;
8663;SDS011;4369;47.842;13.096;2024-02-15T04:21:32;2.70;;;2.50;;
8663;SDS011;4369;47.842;13.096;2024-02-15T04:23:59;2.87;;;2.57;;
8663;SDS011;4369;47.842;13.096;2024-02-15T04:26:28;2.90;;;2.70;;
8663;SDS011;4369;47.842;13.096;2024-02-15T04:28:56;3.23;;;2.97;;
8663;SDS011;4369;47.842;13.096;2024-02-15T04:31:23;3.40;;;3.10;;
8663;SDS011;4369;47.842;13.096;2024-02-15T04:33:52;3.77;;;3.37;;
8663;SDS011;4369;47.842;13.096;2024-02-15T04:36:19;4.57;;;3.70;;
8663;SDS011;4369;47.842;13.096;2024-02-15T04:38:50;3.47;;;3.17;;
8663;SDS011;4369;47.842;13.096;2024-02-15T04:41:17;3.47;;;3.17;;
8663;SDS011;4369;47.842;13.096;2024-02-15T04:43:49;4.83;;;3.90;;
8663;SDS011;4369;47.842;13.096;2024-02-15T04:46:17;3.47;;;2.80;;
8663;SDS011;4369;47.842;13.096;2024-02-15T04:48:46;4.60;;;4.20;;
8663;SDS011;4369;47.842;13.096;2024-02-15T04:51:15;7.17;;;5.13;;
8663;SDS011;4369;47.842;13.096;2024-02-15T04:53:42;7.67;;;4.90;;
8663;SDS011;4369;47.842;13.096;2024-02-15T04:56:11;6.67;;;4.67;;
8663;SDS011;4369;47.842;13.096;2024-02-15T04:58:40;5.53;;;4.73;;
8663;SDS011;4369;47.842;13.096;2024-02-15T05:01:13;5.17;;;4.50;;
8663;SDS011;4369;47.842;13.096;2024-02-15T05:03:41;5.73;;;4.27;;
8663;SDS011;4369;47.842;13.096;2024-02-15T05:06:09;4.57;;;3.33;;
8663;SDS011;4369;47.842;13.096;2024-02-15T05:08:38;6.47;;;3.47;;
8663;SDS011;4369;47.842;13.096;2024-02-15T05:11:07;4.47;;;3.63;;
8663;SDS011;4369;47.842;13.096;2024-02-15T05:13:40;4.20;;;2.90;;
8663;SDS011;4369;47.842;13.096;2024-02-15T05:16:07;3.10;;;2.80;;
8663;SDS011;4369;47.842;13.096;2024-02-15T05:18:35;3.40;;;2.93;;
8663;SDS011;4369;47.842;13.096;2024-02-15T05:21:03;6.30;;;3.60;;
8663;SDS011;4369;47.842;13.096;2024-02-15T05:23:34;4.50;;;4.10;;
8663;SDS011;4369;47.842;13.096;2024-02-15T05:26:01;4.70;;;4.10;;
8663;SDS011;4369;47.842;13.096;2024-02-15T05:28:29;3.87;;;3.17;;
8663;SDS011;4369;47.842;13.096;2024-02-15T05:31:10;3.80;;;3.50;;
8663;SDS011;4369;47.842;13.096;2024-02-15T05:33:40;5.20;;;3.80;;
8663;SDS011;4369;47.842;13.096;2024-02-15T05:36:09;4.83;;;4.43;;
8663;SDS011;4369;47.842;13.096;2024-02-15T05:38:36;6.93;;;5.03;;
8663;SDS011;4369;47.842;13.096;2024-02-15T05:41:03;5.93;;;4.93;;
8663;SDS011;4369;47.842;13.096;2024-02-15T05:43:32;7.17;;;5.50;;
8663;SDS011;4369;47.842;13.096;2024-02-15T05:46:01;9.73;;;6.90;;
8663;SDS011;4369;47.842;13.096;2024-02-15T05:48:28;10.47;;;8.13;;
8663;SDS011;4369;47.842;13.096;2024-02-15T05:50:56;10.30;;;7.93;;
8663;SDS011;4369;47.842;13.096;2024-02-15T05:53:24;5.90;;;4.77;;
8663;SDS011;4369;47.842;13.096;2024-02-15T05:55:51;8.13;;;5.80;;
8663;SDS011;4369;47.842;13.096;2024-02-15T05:58:18;8.30;;;6.23;;
8663;SDS011;4369;47.842;13.096;2024-02-15T06:00:46;8.87;;;6.30;;
8663;SDS011;4369;47.842;13.096;2024-02-15T06:03:14;8.53;;;6.70;;
8663;SDS011;4369;47.842;13.096;2024-02-15T06:05:42;7.77;;;6.03;;
8663;SDS011;4369;47.842;13.096;2024-02-15T06:08:11;7.30;;;5.80;;
8663;SDS011;4369;47.842;13.096;2024-02-15T06:10:38;9.83;;;6.93;;
8663;SDS011;4369;47.842;13.096;2024-02-15T06:13:05;7.13;;;5.80;;
8663;SDS011;4369;47.842;13.096;2024-02-15T06:15:34;7.50;;;6.37;;
8663;SDS011;4369;47.842;13.096;2024-02-15T06:18:01;7.03;;;5.93;;
8663;SDS011;4369;47.842;13.096;2024-02-15T06:20:34;8.03;;;6.33;;
8663;SDS011;4369;47.842;13.096;2024-02-15T06:23:01;8.20;;;6.23;;
8663;SDS011;4369;47.842;13.096;2024-02-15T06:25:31;8.37;;;6.60;;
8663;SDS011;4369;47.842;13.096;2024-02-15T06:27:58;8.70;;;6.70;;
8663;SDS011;4369;47.842;13.096;2024-02-15T06:30:27;9.03;;;6.60;;
8663;SDS011;4369;47.842;13.096;2024-02-15T06:33:12;9.90;;;7.60;;
8663;SDS011;4369;47.842;13.096;2024-02-15T06:35:56;10.47;;;8.03;;
8663;SDS011;4369;47.842;13.096;2024-02-15T06:38:41;10.23;;;7.43;;
8663;SDS011;4369;47.842;13.096;2024-02-15T06:41:35;8.47;;;6.77;;
8663;SDS011;4369;47.842;13.096;2024-02-15T06:44:02;10.97;;;7.83;;
8663;SDS011;4369;47.842;13.096;2024-02-15T06:46:30;9.77;;;7.83;;
8663;SDS011;4369;47.842;13.096;2024-02-15T06:48:57;8.67;;;7.53;;
8663;SDS011;4369;47.842;13.096;2024-02-15T06:51:24;8.50;;;7.60;;
8663;SDS011;4369;47.842;13.096;2024-02-15T06:53:51;6.80;;;6.10;;
8663;SDS011;4369;47.842;13.096;2024-02-15T06:56:20;9.97;;;6.97;;
8663;SDS011;4369;47.842;13.096;2024-02-15T06:58:49;8.73;;;7.33;;
8663;SDS011;4369;47.842;13.096;2024-02-15T07:01:16;8.60;;;7.17;;
8663;SDS011;4369;47.842;13.096;2024-02-15T07:03:43;7.87;;;6.37;;
8663;SDS011;4369;47.842;13.096;2024-02-15T07:06:10;7.07;;;5.60;;
8663;SDS011;4369;47.842;13.096;2024-02-15T07:08:38;8.33;;;5.60;;
8663;SDS011;4369;47.842;13.096;2024-02-15T07:11:06;9.27;;;6.20;;
8663;SDS011;4369;47.842;13.096;2024-02-15T07:13:34;6.87;;;5.50;;
8663;SDS011;4369;47.842;13.096;2024-02-15T07:16:05;5.87;;;5.30;;
8663;SDS011;4369;47.842;13.096;2024-02-15T07:18:33;5.50;;;5.00;;
8663;SDS011;4369;47.842;13.096;2024-02-15T07:21:00;5.80;;;5.20;;
8663;SDS011;4369;47.842;13.096;2024-02-15T07:23:29;5.93;;;5.00;;
8663;SDS011;4369;47.842;13.096;2024-02-15T07:25:58;5.77;;;4.83;;
8663;SDS011;4369;47.842;13.096;2024-02-15T07:28:25;6.53;;;5.00;;
8663;SDS011;4369;47.842;13.096;2024-02-15T07:30:52;5.40;;;4.90;;
8663;SDS011;4369;47.842;13.096;2024-02-15T07:33:20;6.17;;;5.03;;
8663;SDS011;4369;47.842;13.096;2024-02-15T07:35:48;6.77;;;5.13;;
8663;SDS011;4369;47.842;13.096;2024-02-15T07:38:16;6.63;;;5.43;;
8663;SDS011;4369;47.842;13.096;2024-02-15T07:40:43;6.27;;;5.40;;
8663;SDS011;4369;47.842;13.096;2024-02-15T07:43:10;5.37;;;4.90;;
8663;SDS011;4369;47.842;13.096;2024-02-15T07:45:37;6.70;;;5.00;;
8663;SDS011;4369;47.842;13.096;2024-02-15T07:48:04;7.10;;;6.17;;
8663;SDS011;4369;47.842;13.096;2024-02-15T07:50:33;7.50;;;6.70;;
8663;SDS011;4369;47.842;13.096;2024-02-15T07:53:02;7.40;;;6.07;;
8663;SDS011;4369;47.842;13.096;2024-02-15T07:55:31;6.30;;;5.23;;
8663;SDS011;4369;47.842;13.096;2024-02-15T07:57:59;4.87;;;4.30;;
8663;SDS011;4369;47.842;13.096;2024-02-15T08:00:27;4.50;;;4.00;;
8663;SDS011;4369;47.842;13.096;2024-02-15T08:02:55;5.23;;;4.00;;
8663;SDS011;4369;47.842;13.096;2024-02-15T08:05:22;4.87;;;4.10;;
8663;SDS011;4369;47.842;13.096;2024-02-15T08:07:51;4.20;;;3.53;;
8663;SDS011;4369;47.842;13.096;2024-02-15T08:10:22;4.93;;;3.60;;
8663;SDS011;4369;47.842;13.096;2024-02-15T08:12:50;6.27;;;3.90;;
8663;SDS011;4369;47.842;13.096;2024-02-15T08:15:18;5.53;;;4.23;;
8663;SDS011;4369;47.842;13.096;2024-02-15T08:17:45;3.73;;;3.13;;
8663;SDS011;4369;47.842;13.096;2024-02-15T08:20:12;4.53;;;3.00;;
8663;SDS011;4369;47.842;13.096;2024-02-15T08:22:40;3.83;;;2.90;;
8663;SDS011;4369;47.842;13.096;2024-02-15T08:25:10;5.13;;;2.97;;
8663;SDS011;4369;47.842;13.096;2024-02-15T08:27:38;3.63;;;2.73;;
8663;SDS011;4369;47.842;13.096;2024-02-15T08:30:08;3.90;;;3.50;;
8663;SDS011;4369;47.842;13.096;2024-02-15T08:32:36;3.93;;;2.90;;
8663;SDS011;4369;47.842;13.096;2024-02-15T08:35:04;3.53;;;3.23;;
8663;SDS011;4369;47.842;13.096;2024-02-15T08:37:33;4.07;;;3.13;;
8663;SDS011;4369;47.842;13.096;2024-02-15T08:40:01;5.73;;;3.43;;
8663;SDS011;4369;47.842;13.096;2024-02-15T08:42:30;4.63;;;3.50;;
8663;SDS011;4369;47.842;13.096;2024-02-15T08:44:57;9.03;;;3.77;;
8663;SDS011;4369;47.842;13.096;2024-02-15T08:47:25;4.83;;;4.20;;
8663;SDS011;4369;47.842;13.096;2024-02-15T08:49:52;3.23;;;2.90;;
8663;SDS011;4369;47.842;13.096;2024-02-15T08:52:19;4.37;;;3.20;;
8663;SDS011;4369;47.842;13.096;2024-02-15T08:54:46;2.80;;;2.60;;
8663;SDS011;4369;47.842;13.096;2024-02-15T08:57:13;6.87;;;3.77;;
8663;SDS011;4369;47.842;13.096;2024-02-15T08:59:41;6.10;;;3.53;;
8663;SDS011;4369;47.842;13.096;2024-02-15T09:02:08;4.57;;;3.53;;
8663;SDS011;4369;47.842;13.096;2024-02-15T09:04:35;4.23;;;3.10;;
8663;SDS011;4369;47.842;13.096;2024-02-15T09:07:02;9.90;;;4.87;;
8663;SDS011;4369;47.842;13.096;2024-02-15T09:09:29;5.73;;;3.50;;
8663;SDS011;4369;47.842;13.096;2024-02-15T09:12:00;7.97;;;3.73;;
8663;SDS011;4369;47.842;13.096;2024-02-15T09:14:30;5.70;;;3.70;;
8663;SDS011;4369;47.842;13.096;2024-02-15T09:16:59;8.57;;;3.90;;
8663;SDS011;4369;47.842;13.096;2024-02-15T09:19:26;4.00;;;3.53;;
8663;SDS011;4369;47.842;13.096;2024-02-15T09:21:53;6.10;;;4.17;;
8663;SDS011;4369;47.842;13.096;2024-02-15T09:24:22;5.93;;;3.60;;
8663;SDS011;4369;47.842;13.096;2024-02-15T09:26:50;6.23;;;3.83;;
8663;SDS011;4369;47.842;13.096;2024-02-15T09:29:17;5.17;;;4.03;;
8663;SDS011;4369;47.842;13.096;2024-02-15T09:31:46;6.43;;;3.57;;
8663;SDS011;4369;47.842;13.096;2024-02-15T09:34:14;4.67;;;3.63;;
8663;SDS011;4369;47.842;13.096;2024-02-15T09:36:41;4.40;;;3.40;;
8663;SDS011;4369;47.842;13.096;2024-02-15T09:39:08;5.83;;;3.20;;
8663;SDS011;4369;47.842;13.096;2024-02-15T09:41:39;5.23;;;3.07;;
8663;SDS011;4369;47.842;13.096;2024-02-15T09:44:07;4.73;;;4.27;;
8663;SDS011;4369;47.842;13.096;2024-02-15T09:46:35;5.97;;;3.83;;
8663;SDS011;4369;47.842;13.096;2024-02-15T09:49:07;10.60;;;4.40;;
8663;SDS011;4369;47.842;13.096;2024-02-15T09:51:36;8.47;;;4.40;;
8663;SDS011;4369;47.842;13.096;2024-02-15T09:54:04;4.77;;;3.60;;
8663;SDS011;4369;47.842;13.096;2024-02-15T09:56:34;3.53;;;3.20;;
8663;SDS011;4369;47.842;13.096;2024-02-15T09:59:02;6.33;;;3.83;;
8663;SDS011;4369;47.842;13.096;2024-02-15T10:01:31;3.17;;;2.77;;
8663;SDS011;4369;47.842;13.096;2024-02-15T10:04:00;4.63;;;2.80;;
8663;SDS011;4369;47.842;13.096;2024-02-15T10:06:32;4.10;;;3.07;;
8663;SDS011;4369;47.842;13.096;2024-02-15T10:11:55;2.60;;;2.10;;
8663;SDS011;4369;47.842;13.096;2024-02-15T10:14:23;1.60;;;1.50;;
8663;SDS011;4369;47.842;13.096;2024-02-15T10:16:52;3.47;;;2.33;;
8663;SDS011;4369;47.842;13.096;2024-02-15T10:19:20;2.00;;;1.90;;
8663;SDS011;4369;47.842;13.096;2024-02-15T10:21:50;4.47;;;2.23;;
8663;SDS011;4369;47.842;13.096;2024-02-15T10:24:20;2.40;;;2.20;;
8663;SDS011;4369;47.842;13.096;2024-02-15T10:26:50;5.17;;;2.20;;
8663;SDS011;4369;47.842;13.096;2024-02-15T10:29:19;2.60;;;2.23;;
8663;SDS011;4369;47.842;13.096;2024-02-15T10:31:55;3.00;;;2.43;;
8663;SDS011;4369;47.842;13.096;2024-02-15T10:34:24;2.03;;;1.83;;
8663;SDS011;4369;47.842;13.096;2024-02-15T10:36:52;4.30;;;2.27;;
8663;SDS011;4369;47.842;13.096;2024-02-15T10:39:21;3.83;;;2.33;;
8663;SDS011;4369;47.842;13.096;2024-02-15T10:41:51;6.80;;;2.60;;
8663;SDS011;4369;47.842;13.096;2024-02-15T10:44:20;4.20;;;2.50;;
8663;SDS011;4369;47.842;13.096;2024-02-15T10:46:49;1.80;;;1.70;;
8663;SDS011;4369;47.842;13.096;2024-02-15T10:49:18;3.43;;;2.40;;
8663;SDS011;4369;47.842;13.096;2024-02-15T10:51:48;5.03;;;2.40;;
8663;SDS011;4369;47.842;13.096;2024-02-15T10:54:21;6.93;;;3.57;;
8663;SDS011;4369;47.842;13.096;2024-02-15T10:56:59;3.83;;;2.50;;
8663;SDS011;4369;47.842;13.096;2024-02-15T10:59:32;4.07;;;2.40;;
8663;SDS011;4369;47.842;13.096;2024-02-15T11:02:01;4.93;;;2.57;;
8663;SDS011;4369;47.842;13.096;2024-02-15T11:04:36;2.33;;;2.00;;
8663;SDS011;4369;47.842;13.096;2024-02-15T11:07:03;1.70;;;1.60;;
8663;SDS011;4369;47.842;13.096;2024-02-15T11:09:32;1.90;;;1.80;;
8663;SDS011;4369;47.842;13.096;2024-02-15T11:12:02;6.67;;;2.60;;
8663;SDS011;4369;47.842;13.096;2024-02-15T11:14:32;3.00;;;2.30;;
8663;SDS011;4369;47.842;13.096;2024-02-15T11:17:01;4.07;;;2.17;;
8663;SDS011;4369;47.842;13.096;2024-02-15T11:19:41;6.57;;;2.37;;
8663;SDS011;4369;47.842;13.096;2024-02-15T11:22:12;3.13;;;2.60;;
8663;SDS011;4369;47.842;13.096;2024-02-15T11:24:47;3.33;;;2.50;;
8663;SDS011;4369;47.842;13.096;2024-02-15T11:27:25;2.40;;;2.20;;
8663;SDS011;4369;47.842;13.096;2024-02-15T11:29:53;2.20;;;2.05;;
8663;SDS011;4369;47.842;13.096;2024-02-15T11:32:34;2.70;;;2.00;;
8663;SDS011;4369;47.842;13.096;2024-02-15T11:35:10;2.70;;;2.00;;
8663;SDS011;4369;47.842;13.096;2024-02-15T11:37:49;2.67;;;1.83;;
8663;SDS011;4369;47.842;13.096;2024-02-15T11:40:18;2.08;;;1.80;;
8663;SDS011;4369;47.842;13.096;2024-02-15T11:42:49;1.63;;;1.50;;
8663;SDS011;4369;47.842;13.096;2024-02-15T11:45:18;4.50;;;2.13;;
8663;SDS011;4369;47.842;13.096;2024-02-15T11:47:47;2.38;;;2.17;;
8663;SDS011;4369;47.842;13.096;2024-02-15T11:50:16;2.65;;;2.10;;
8663;SDS011;4369;47.842;13.096;2024-02-15T11:52:45;3.35;;;2.20;;
8663;SDS011;4369;47.842;13.096;2024-02-15T11:55:14;1.85;;;1.40;;
8663;SDS011;4369;47.842;13.096;2024-02-15T11:57:55;1.67;;;1.58;;
8663;SDS011;4369;47.842;13.096;2024-02-15T12:00:28;1.50;;;1.50;;
8663;SDS011;4369;47.842;13.096;2024-02-15T12:03:13;1.42;;;1.33;;
8663;SDS011;4369;47.842;13.096;2024-02-15T12:05:59;1.48;;;1.38;;
8663;SDS011;4369;47.842;13.096;2024-02-15T12:08:44;2.80;;;1.52;;
8663;SDS011;4369;47.842;13.096;2024-02-15T12:11:29;2.85;;;1.67;;
8663;SDS011;4369;47.842;13.096;2024-02-15T12:14:16;1.27;;;1.10;;
8663;SDS011;4369;47.842;13.096;2024-02-15T12:17:01;1.65;;;1.40;;
8663;SDS011;4369;47.842;13.096;2024-02-15T12:19:47;1.95;;;1.08;;
8663;SDS011;4369;47.842;13.096;2024-02-15T12:22:17;1.33;;;0.90;;
8663;SDS011;4369;47.842;13.096;2024-02-15T12:24:52;1.48;;;1.20;;
8663;SDS011;4369;47.842;13.096;2024-02-15T12:27:21;1.30;;;1.20;;
8663;SDS011;4369;47.842;13.096;2024-02-15T12:29:57;2.03;;;1.20;;
8663;SDS011;4369;47.842;13.096;2024-02-15T12:32:27;1.50;;;1.40;;
8663;SDS011;4369;47.842;13.096;2024-02-15T12:35:09;1.38;;;1.23;;
8663;SDS011;4369;47.842;13.096;2024-02-15T12:37:41;1.45;;;1.20;;
8663;SDS011;4369;47.842;13.096;2024-02-15T12:40:11;1.40;;;1.30;;
8663;SDS011;4369;47.842;13.096;2024-02-15T12:42:41;3.13;;;1.10;;
8663;SDS011;4369;47.842;13.096;2024-02-15T12:45:16;1.23;;;1.13;;
8663;SDS011;4369;47.842;13.096;2024-02-15T12:47:47;1.50;;;0.82;;
8663;SDS011;4369;47.842;13.096;2024-02-15T12:50:16;1.48;;;1.23;;
8663;SDS011;4369;47.842;13.096;2024-02-15T12:52:45;1.42;;;1.15;;
8663;SDS011;4369;47.842;13.096;2024-02-15T12:55:15;0.90;;;0.90;;
8663;SDS011;4369;47.842;13.096;2024-02-15T12:57:45;2.33;;;1.05;;
8663;SDS011;4369;47.842;13.096;2024-02-15T13:00:17;1.17;;;1.10;;
8663;SDS011;4369;47.842;13.096;2024-02-15T13:02:46;1.13;;;0.90;;
8663;SDS011;4369;47.842;13.096;2024-02-15T13:05:15;1.63;;;1.08;;
8663;SDS011;4369;47.842;13.096;2024-02-15T13:07:43;0.90;;;0.90;;
8663;SDS011;4369;47.842;13.096;2024-02-15T13:10:12;1.10;;;1.00;;
8663;SDS011;4369;47.842;13.096;2024-02-15T13:12:40;0.75;;;0.75;;
8663;SDS011;4369;47.842;13.096;2024-02-15T13:15:08;1.20;;;0.80;;
8663;SDS011;4369;47.842;13.096;2024-02-15T13:17:42;0.93;;;0.90;;
8663;SDS011;4369;47.842;13.096;2024-02-15T13:20:10;0.90;;;0.90;;
8663;SDS011;4369;47.842;13.096;2024-02-15T13:22:39;1.00;;;1.00;;
8663;SDS011;4369;47.842;13.096;2024-02-15T13:25:06;0.90;;;0.90;;
8663;SDS011;4369;47.842;13.096;2024-02-15T13:27:34;3.50;;;1.17;;
8663;SDS011;4369;47.842;13.096;2024-02-15T13:30:03;1.10;;;0.88;;
8663;SDS011;4369;47.842;13.096;2024-02-15T13:32:35;0.80;;;0.80;;
8663;SDS011;4369;47.842;13.096;2024-02-15T13:35:06;2.40;;;0.90;;
8663;SDS011;4369;47.842;13.096;2024-02-15T13:37:39;0.82;;;0.82;;
8663;SDS011;4369;47.842;13.096;2024-02-15T13:40:08;1.60;;;0.73;;
8663;SDS011;4369;47.842;13.096;2024-02-15T13:42:40;1.00;;;1.00;;
8663;SDS011;4369;47.842;13.096;2024-02-15T13:45:12;2.00;;;0.80;;
8663;SDS011;4369;47.842;13.096;2024-02-15T13:47:40;2.92;;;0.90;;
8663;SDS011;4369;47.842;13.096;2024-02-15T13:50:08;0.90;;;0.90;;
8663;SDS011;4369;47.842;13.096;2024-02-15T13:52:39;1.00;;;0.90;;
8663;SDS011;4369;47.842;13.096;2024-02-15T13:55:08;0.60;;;0.60;;
8663;SDS011;4369;47.842;13.096;2024-02-15T13:57:37;0.80;;;0.80;;
8663;SDS011;4369;47.842;13.096;2024-02-15T14:00:05;1.10;;;1.00;;
8663;SDS011;4369;47.842;13.096;2024-02-15T14:02:38;2.03;;;1.13;;
8663;SDS011;4369;47.842;13.096;2024-02-15T14:05:06;1.08;;;0.80;;
8663;SDS011;4369;47.842;13.096;2024-02-15T14:07:34;1.17;;;0.90;;
8663;SDS011;4369;47.842;13.096;2024-02-15T14:10:01;2.67;;;1.08;;
8663;SDS011;4369;47.842;13.096;2024-02-15T14:12:30;1.00;;;0.82;;
8663;SDS011;4369;47.842;13.096;2024-02-15T14:14:57;2.13;;;0.90;;
8663;SDS011;4369;47.842;13.096;2024-02-15T14:17:24;2.38;;;1.10;;
8663;SDS011;4369;47.842;13.096;2024-02-15T14:19:53;2.83;;;1.00;;
8663;SDS011;4369;47.842;13.096;2024-02-15T14:22:22;1.20;;;1.10;;
8663;SDS011;4369;47.842;13.096;2024-02-15T14:24:54;1.20;;;1.10;;
8663;SDS011;4369;47.842;13.096;2024-02-15T14:27:21;1.20;;;1.10;;
8663;SDS011;4369;47.842;13.096;2024-02-15T14:29:48;0.90;;;0.65;;
8663;SDS011;4369;47.842;13.096;2024-02-15T14:32:29;0.90;;;0.70;;
8663;SDS011;4369;47.842;13.096;2024-02-15T14:35:13;0.70;;;0.70;;
8663;SDS011;4369;47.842;13.096;2024-02-15T14:37:43;1.20;;;1.00;;
8663;SDS011;4369;47.842;13.096;2024-02-15T14:40:11;1.27;;;0.80;;
8663;SDS011;4369;47.842;13.096;2024-02-15T14:42:40;2.05;;;0.70;;
8663;SDS011;4369;47.842;13.096;2024-02-15T14:45:08;2.00;;;1.05;;
8663;SDS011;4369;47.842;13.096;2024-02-15T14:47:36;2.15;;;0.82;;
8663;SDS011;4369;47.842;13.096;2024-02-15T14:50:03;1.30;;;1.17;;
8663;SDS011;4369;47.842;13.096;2024-02-15T14:52:33;0.90;;;0.90;;
8663;SDS011;4369;47.842;13.096;2024-02-15T14:55:03;1.05;;;0.90;;
8663;SDS011;4369;47.842;13.096;2024-02-15T14:57:32;1.63;;;0.90;;
8663;SDS011;4369;47.842;13.096;2024-02-15T15:00:00;1.90;;;0.83;;
8663;SDS011;4369;47.842;13.096;2024-02-15T15:02:29;0.73;;;0.73;;
8663;SDS011;4369;47.842;13.096;2024-02-15T15:04:56;1.03;;;0.80;;
8663;SDS011;4369;47.842;13.096;2024-02-15T15:07:40;0.80;;;0.70;;
8663;SDS011;4369;47.842;13.096;2024-02-15T15:10:26;1.67;;;1.00;;
8663;SDS011;4369;47.842;13.096;2024-02-15T15:13:11;1.20;;;1.00;;
8663;SDS011;4369;47.842;13.096;2024-02-15T15:15:38;2.20;;;0.90;;